createdAt,value
2019-03-06T00:02:19.897Z,2.5
2019-03-06T00:07:25.109Z,2.4
2019-03-06T00:12:30.122Z,3.2
2019-03-06T00:17:35.333Z,2.1
2019-03-06T00:22:40.817Z,4.2
2019-03-06T00:27:46.955Z,3.7
2019-03-06T00:32:52.085Z,2.8
2019-03-06T00:37:57.954Z,3.3
2019-03-06T00:43:04.171Z,1.7
2019-03-06T00:48:09.732Z,2.9
2019-03-06T00:53:15.535Z,1.9
2019-03-06T00:58:20.885Z,2
2019-03-06T01:03:28.615Z,2.5
2019-03-06T01:08:34.368Z,1.7
2019-03-06T01:13:40.530Z,1.8
2019-03-06T01:18:45.609Z,2.3
2019-03-06T01:23:51.124Z,2.5
2019-03-06T01:28:57.802Z,2.3
2019-03-06T01:34:03.543Z,2.1
2019-03-06T01:39:09.397Z,2.7
2019-03-06T01:44:14.319Z,1.8
2019-03-06T01:49:20.415Z,3.6
2019-03-06T01:54:26.438Z,2.6
2019-03-06T01:59:32.536Z,9.6
2019-03-06T02:04:37.612Z,2.2
2019-03-06T02:09:43.533Z,2.7
2019-03-06T02:14:48.796Z,1.5
2019-03-06T02:19:54.996Z,2.4
2019-03-06T02:25:00.853Z,1.3
2019-03-06T02:30:06.086Z,1.7
2019-03-06T02:35:11.517Z,1.1
2019-03-06T02:40:17.284Z,1.8
2019-03-06T02:45:22.959Z,1.8
2019-03-06T02:50:28.816Z,1.3
2019-03-06T02:55:34.868Z,1.1
2019-03-06T03:00:41.066Z,1.9
2019-03-06T03:05:46.477Z,1.6
2019-03-06T03:10:52.268Z,1.6
2019-03-06T03:15:57.929Z,1.9
2019-03-06T03:21:03.125Z,1.4
2019-03-06T03:26:09.061Z,1
2019-03-06T03:31:14.287Z,0.9
2019-03-06T03:36:19.253Z,0.8
2019-03-06T03:41:25.224Z,1.1
2019-03-06T03:46:30.365Z,0.9
2019-03-06T03:51:36.225Z,1.2
2019-03-06T03:56:41.181Z,1.5
2019-03-06T04:01:46.896Z,0.8
2019-03-06T04:06:51.074Z,1.5
2019-03-06T04:11:57.036Z,1.7
2019-03-06T04:17:02.952Z,0.9
2019-03-06T04:22:08.906Z,1.4
2019-03-06T04:27:13.111Z,1.4
2019-03-06T04:32:18.290Z,1.9
2019-03-06T04:37:23.213Z,1.6
2019-03-06T04:42:29.024Z,1
2019-03-06T04:47:33.012Z,1.2
2019-03-06T04:52:37.776Z,1.1
2019-03-06T04:57:43.541Z,2.2
2019-03-06T05:02:49.712Z,3.3
2019-03-06T05:07:55.161Z,1.1
2019-03-06T05:13:01.754Z,2.3
2019-03-06T05:18:07.233Z,3
2019-03-06T05:23:12.465Z,3.4
2019-03-06T05:28:17.854Z,3.4
2019-03-06T05:33:23.988Z,3.2
2019-03-06T05:38:29.103Z,1.6
2019-03-06T05:43:34.629Z,0.9
2019-03-06T05:48:40.355Z,1.2
2019-03-06T05:53:45.210Z,1.6
2019-03-06T05:58:50.151Z,1.7
2019-03-06T06:03:55.341Z,1.5
2019-03-06T06:09:05.264Z,0.8
2019-03-06T06:14:11.475Z,2
2019-03-06T06:19:16.948Z,0.8
2019-03-06T06:24:22.084Z,0.8
2019-03-06T06:29:27.060Z,1.1
2019-03-06T06:34:32.288Z,0.7
2019-03-06T06:39:37.981Z,1.3
2019-03-06T06:44:44.223Z,1.7
2019-03-06T06:49:50.157Z,3.2
2019-03-06T06:54:54.755Z,2.2
2019-03-06T07:00:00.871Z,2.2
2019-03-06T07:05:06.192Z,1.4
2019-03-06T07:10:11.550Z,3.4
2019-03-06T07:15:16.939Z,1.5
2019-03-06T07:20:22.837Z,3
2019-03-06T07:25:27.945Z,0.7
2019-03-06T07:30:33.201Z,2.7
2019-03-06T07:35:39.776Z,4.7
2019-03-06T07:40:45.436Z,0.9
2019-03-06T07:45:51.553Z,4.5
2019-03-06T07:50:56.821Z,2
2019-03-06T07:56:03.012Z,1.7
2019-03-06T08:01:16.791Z,2
2019-03-06T08:06:15.499Z,1.1
2019-03-06T08:11:21.031Z,6.4
2019-03-06T08:16:27.250Z,5
2019-03-06T08:21:33.142Z,2.6
2019-03-06T08:26:38.443Z,3.1
2019-03-06T08:31:43.660Z,2.9
2019-03-06T08:36:48.588Z,2.5
2019-03-06T08:41:54.554Z,4.1
2019-03-06T08:47:00.929Z,3.4
2019-03-06T08:52:06.025Z,4.6
2019-03-06T08:57:11.744Z,7
2019-03-06T09:02:15.937Z,5
2019-03-06T09:07:19.088Z,3.2
2019-03-06T09:12:24.168Z,3.2
2019-03-06T09:17:32.394Z,5.4
2019-03-06T09:22:36.688Z,3.2
2019-03-06T09:27:42.230Z,5.4
2019-03-06T09:32:47.846Z,5.5
2019-03-06T09:37:53.517Z,6.4
2019-03-06T09:42:59.163Z,8.7
2019-03-06T09:48:05.243Z,11.5
2019-03-06T09:53:11.012Z,8.7
2019-03-06T09:58:16.968Z,6.1
2019-03-06T10:03:22.757Z,5.8
2019-03-06T10:08:28.078Z,8.6
2019-03-06T10:13:33.623Z,8.7
2019-03-06T10:18:36.497Z,12.2
2019-03-06T10:23:41.994Z,8.9
2019-03-06T10:28:47.633Z,6
2019-03-06T10:33:54.023Z,8.6
2019-03-06T10:39:00.242Z,6.2
2019-03-06T10:44:05.730Z,7.3
2019-03-06T10:49:11.208Z,4.3
2019-03-06T10:54:17.122Z,5.4
2019-03-06T10:59:23.247Z,11.4
2019-03-06T11:04:28.724Z,12.8
2019-03-06T11:09:34.704Z,17
2019-03-06T11:14:39.498Z,10.4
2019-03-06T11:19:44.924Z,11.7
2019-03-06T11:24:51.145Z,11.8
2019-03-06T11:29:57.680Z,14
2019-03-06T11:35:04.481Z,8.5
2019-03-06T11:40:10.680Z,10.5
2019-03-06T11:45:15.844Z,8.1
2019-03-06T11:50:21.049Z,8.9
2019-03-06T11:55:26.901Z,7.7
2019-03-06T12:00:33.046Z,8.6
2019-03-06T12:05:38.990Z,5.6
2019-03-06T12:10:44.606Z,6
2019-03-06T12:15:50.760Z,5.7
2019-03-06T12:20:56.203Z,8.3
2019-03-06T12:26:02.115Z,3.3
2019-03-06T12:31:07.628Z,3.5
2019-03-06T12:36:13.547Z,3.5
2019-03-06T12:41:18.088Z,3.7
2019-03-06T12:46:24.276Z,3.1
2019-03-06T12:51:30.375Z,4.7
2019-03-06T12:56:35.744Z,2.3
2019-03-06T13:01:41.596Z,4.1
2019-03-06T13:06:46.747Z,3.4
2019-03-06T13:11:52.904Z,1.9
2019-03-06T13:16:59.432Z,2.1
2019-03-06T13:22:10.959Z,2.6
2019-03-06T13:27:09.348Z,1.8
2019-03-06T13:32:16.223Z,1.7
2019-03-06T13:37:21.884Z,3.6
2019-03-06T13:42:27.967Z,2.5
2019-03-06T13:47:33.133Z,2.1
2019-03-06T13:52:38.939Z,1.8
2019-03-06T13:57:44.565Z,2.4
2019-03-06T14:02:51.222Z,1.9
2019-03-06T14:07:56.973Z,1.9
2019-03-06T14:13:03.565Z,1.4
2019-03-06T14:18:08.772Z,6.6
2019-03-06T14:23:14.784Z,3
2019-03-06T14:28:20.331Z,2.9
2019-03-06T14:33:26.196Z,2.8
2019-03-06T14:38:31.968Z,2.4
2019-03-06T14:43:38.003Z,1.8
2019-03-06T14:48:45.084Z,1.7
2019-03-06T14:53:51.297Z,2.7
2019-03-06T14:58:57.517Z,2.1
2019-03-06T15:04:03.358Z,1.7
2019-03-06T15:09:08.502Z,2.3
2019-03-06T15:14:14.533Z,2.3
2019-03-06T15:19:20.624Z,2.3
2019-03-06T15:24:26.867Z,1.7
2019-03-06T15:29:33.060Z,1.5
2019-03-06T15:34:38.691Z,3.4
2019-03-06T15:39:48.340Z,2.4
2019-03-06T15:44:53.293Z,2.8
2019-03-06T15:49:58.709Z,4.3
2019-03-06T15:55:06.371Z,4
2019-03-06T16:00:11.879Z,2.5
2019-03-06T16:05:17.844Z,3.4
2019-03-06T16:10:23.645Z,7.9
2019-03-06T16:15:28.807Z,5.4
2019-03-06T16:20:38.234Z,8.6
2019-03-06T16:25:44.387Z,11.4
2019-03-06T16:30:47.453Z,7.5
2019-03-06T16:35:53.420Z,6.9
2019-03-06T16:40:59.208Z,7.5
2019-03-06T16:46:04.132Z,10
2019-03-06T16:51:10.431Z,8.6
2019-03-06T16:56:16.430Z,7.1
2019-03-06T17:01:22.682Z,9.8
2019-03-06T17:06:32.525Z,6.4
2019-03-06T17:11:38.895Z,10.4
2019-03-06T17:16:45.406Z,6.7
2019-03-06T17:21:51.461Z,4.8
2019-03-06T17:26:58.128Z,4.5
2019-03-06T17:32:03.740Z,3.1
2019-03-06T17:37:09.714Z,3.5
2019-03-06T17:42:15.164Z,2.9
2019-03-06T17:47:21.620Z,2.5
2019-03-06T17:52:27.992Z,3.5
2019-03-06T17:57:33.988Z,2.7
2019-03-06T18:02:39.144Z,4.6
2019-03-06T18:07:45.358Z,4
2019-03-06T18:12:49.460Z,5.8
2019-03-06T18:17:56.874Z,7
2019-03-06T18:23:02.223Z,4
2019-03-06T18:28:08.183Z,4.7
2019-03-06T18:33:13.449Z,5.8
2019-03-06T18:38:19.581Z,2.6
2019-03-06T18:43:25.184Z,4.2
2019-03-06T18:48:30.806Z,3.6
2019-03-06T18:53:36.403Z,3.9
2019-03-06T18:58:42.166Z,6.2
2019-03-06T19:03:47.576Z,5.8
2019-03-06T19:08:52.874Z,6.9
2019-03-06T19:13:58.916Z,11.8
2019-03-06T19:19:04.717Z,9
2019-03-06T19:24:09.412Z,11.7
2019-03-06T19:29:15.907Z,9.2
2019-03-06T19:34:21.747Z,6.5
2019-03-06T19:39:27.284Z,5.4
2019-03-06T19:44:33.150Z,9.2
2019-03-06T19:49:39.192Z,20.7
2019-03-06T19:54:44.929Z,43.8
2019-03-06T19:59:53.208Z,25.8
2019-03-06T20:04:59.778Z,24.1
2019-03-06T20:10:06.025Z,13.1
2019-03-06T20:15:12.140Z,15.8
2019-03-06T20:20:18.359Z,9
2019-03-06T20:25:23.785Z,11.8
2019-03-06T20:30:30.291Z,8.1
2019-03-06T20:35:35.466Z,6.6
2019-03-06T20:40:45.054Z,6.5
2019-03-06T20:45:50.990Z,8.4
2019-03-06T20:50:58.048Z,4.5
2019-03-06T20:56:03.810Z,4.5
2019-03-06T21:01:08.132Z,7.1
2019-03-06T21:06:13.768Z,6.9
